Time;durP1;ratioP1;P1;durP2;ratioP2;P2;SDS_P1;SDS_P2;PMS_P1;PMS_P2;Temp;Humidity;BMP_temperature;BMP_pressure;BME280_temperature;BME280_humidity;BME280_pressure;Samples;Min_cycle;Max_cycle;Signal;HPM_P1;HPM_P2
2022/03/28 00:00:11;;;;;;;8.38;3.50;;;6.60;99.90;;;;;;5130357;27;20135;-80
2022/03/28 00:02:40;;;;;;;7.93;3.33;;;6.60;99.90;;;;;;5129218;27;20135;-81
2022/03/28 00:05:10;;;;;;;10.90;3.72;;;6.60;99.90;;;;;;5130707;27;20223;-79
2022/03/28 00:07:36;;;;;;;7.72;3.45;;;6.60;99.90;;;;;;5130045;27;20092;-81
2022/03/28 00:10:03;;;;;;;4.30;3.05;;;6.60;99.90;;;;;;5112176;27;20039;-79
2022/03/28 00:12:29;;;;;;;10.35;4.07;;;6.60;99.90;;;;;;5129521;27;20086;-80
2022/03/28 00:14:55;;;;;;;15.98;3.90;;;6.60;99.90;;;;;;5110749;27;20565;-79
2022/03/28 00:17:20;;;;;;;8.00;3.80;;;6.60;99.90;;;;;;5130140;27;20039;-80
2022/03/28 00:19:46;;;;;;;11.55;3.70;;;6.60;99.90;;;;;;5128735;27;20058;-80
2022/03/28 00:22:12;;;;;;;9.82;3.60;;;6.70;99.90;;;;;;5077798;27;20081;-79
2022/03/28 00:24:37;;;;;;;8.98;3.58;;;6.70;99.90;;;;;;5110120;27;20129;-80
2022/03/28 00:27:03;;;;;;;4.10;2.80;;;6.70;99.90;;;;;;5130123;27;20035;-80
2022/03/28 00:29:29;;;;;;;6.35;2.83;;;6.60;99.90;;;;;;5093315;27;20039;-80
2022/03/28 00:31:55;;;;;;;8.60;2.72;;;6.60;99.90;;;;;;5110798;27;20046;-80
2022/03/28 00:34:21;;;;;;;5.03;2.90;;;6.60;99.90;;;;;;5129598;27;20074;-79
2022/03/28 00:36:51;;;;;;;5.20;2.90;;;6.60;99.90;;;;;;5128496;27;20047;-80
2022/03/28 00:39:20;;;;;;;5.72;3.70;;;6.60;99.90;;;;;;5094258;27;20043;-80
2022/03/28 00:41:51;;;;;;;4.50;2.50;;;6.50;99.90;;;;;;5109184;27;20540;-79
2022/03/28 00:44:17;;;;;;;3.90;2.65;;;6.50;99.90;;;;;;5111256;27;20130;-80
2022/03/28 00:46:43;;;;;;;5.57;2.92;;;6.50;99.90;;;;;;5110798;27;20659;-81
2022/03/28 00:49:09;;;;;;;10.95;3.85;;;6.50;99.90;;;;;;5109779;27;20043;-79
2022/03/28 00:51:36;;;;;;;10.05;3.22;;;7.50;99.90;;;;;;5129226;27;20078;-79
2022/03/28 00:54:02;;;;;;;9.10;2.85;;;6.50;99.90;;;;;;5109648;27;20046;-80
2022/03/28 00:56:28;;;;;;;8.75;3.08;;;6.40;99.90;;;;;;5111292;27;20039;-79
2022/03/28 00:58:55;;;;;;;8.27;3.22;;;6.40;99.90;;;;;;5128140;27;20043;-79
2022/03/28 01:01:20;;;;;;;5.95;2.97;;;6.40;99.90;;;;;;5110950;27;20096;-79
2022/03/28 01:03:46;;;;;;;8.18;2.65;;;6.40;99.90;;;;;;5110259;27;20035;-79
2022/03/28 01:06:12;;;;;;;6.10;3.15;;;6.50;99.90;;;;;;5110032;27;20186;-78
2022/03/28 01:08:38;;;;;;;4.68;3.53;;;6.40;99.90;;;;;;5093799;27;20043;-79
2022/03/28 01:11:06;;;;;;;7.55;3.20;;;6.40;99.90;;;;;;5092080;27;20047;-79
2022/03/28 01:13:40;;;;;;;7.43;3.22;;;6.50;99.90;;;;;;5111191;27;20114;-79
2022/03/28 01:16:07;;;;;;;6.63;3.17;;;6.50;99.90;;;;;;5128166;27;20039;-78
2022/03/28 01:18:33;;;;;;;12.93;3.70;;;6.50;99.90;;;;;;5129653;27;20517;-79
2022/03/28 01:21:01;;;;;;;9.35;3.92;;;6.50;99.90;;;;;;5114266;27;20039;-77
2022/03/28 01:23:27;;;;;;;7.07;3.55;;;6.50;99.90;;;;;;5099805;27;20043;-78
2022/03/28 01:25:54;;;;;;;13.45;3.58;;;6.50;99.90;;;;;;5115040;27;20439;-78
2022/03/28 01:28:27;;;;;;;10.40;4.03;;;7.20;99.90;;;;;;5109295;27;20043;-79
2022/03/28 01:30:55;;;;;;;8.20;4.38;;;6.50;99.90;;;;;;5110902;27;20493;-80
2022/03/28 01:33:22;;;;;;;10.88;3.78;;;6.70;99.90;;;;;;5127778;27;20040;-79
2022/03/28 01:35:48;;;;;;;6.43;4.13;;;6.50;99.90;;;;;;5128830;27;20557;-80
2022/03/28 01:38:16;;;;;;;11.05;3.95;;;6.50;99.90;;;;;;5111058;27;20490;-80
2022/03/28 01:40:44;;;;;;;9.05;4.50;;;6.40;99.90;;;;;;5109591;28;20468;-80
2022/03/28 01:43:10;;;;;;;6.65;3.90;;;6.60;99.90;;;;;;5128658;28;20039;-80
2022/03/28 01:45:36;;;;;;;7.75;3.80;;;6.50;99.90;;;;;;5091733;28;20448;-79
2022/03/28 01:48:02;;;;;;;10.25;3.92;;;6.50;99.90;;;;;;5129152;28;20050;-79
2022/03/28 01:50:28;;;;;;;9.70;3.88;;;6.50;99.90;;;;;;5127671;28;20039;-80
2022/03/28 01:52:54;;;;;;;12.20;4.45;;;6.50;99.90;;;;;;5128475;28;20390;-79
2022/03/28 01:55:20;;;;;;;8.80;4.03;;;7.50;99.90;;;;;;5128332;28;20126;-80
2022/03/28 01:57:47;;;;;;;8.40;3.50;;;6.40;99.90;;;;;;5127260;28;20126;-79
2022/03/28 02:00:18;;;;;;;7.30;3.90;;;6.40;99.90;;;;;;5109742;28;20110;-80
2022/03/28 02:02:47;;;;;;;8.13;3.38;;;6.40;99.90;;;;;;5109090;28;20086;-80
2022/03/28 02:05:15;;;;;;;7.40;3.95;;;6.40;99.90;;;;;;5110151;28;20031;-80
2022/03/28 02:07:47;;;;;;;7.28;3.60;;;6.60;99.90;;;;;;5108899;28;20043;-80
2022/03/28 02:10:15;;;;;;;8.15;3.85;;;6.30;99.90;;;;;;5109853;28;20046;-80
2022/03/28 02:12:41;;;;;;;9.38;4.13;;;7.50;99.90;;;;;;5128313;28;20051;-80
2022/03/28 02:15:08;;;;;;;9.85;3.97;;;6.30;99.90;;;;;;5108654;28;20070;-80
2022/03/28 02:17:35;;;;;;;10.90;4.57;;;6.20;99.90;;;;;;5093270;28;20100;-79
2022/03/28 02:20:01;;;;;;;9.30;4.38;;;6.20;99.90;;;;;;5108428;28;20068;-80
2022/03/28 02:22:27;;;;;;;10.25;4.07;;;6.40;99.90;;;;;;5111385;27;20043;-79
2022/03/28 02:24:53;;;;;;;10.07;4.80;;;6.20;99.90;;;;;;5096239;27;20054;-80
2022/03/28 02:27:18;;;;;;;9.02;5.10;;;6.20;99.90;;;;;;5096876;27;20073;-79
2022/03/28 02:29:44;;;;;;;11.30;5.35;;;6.20;99.90;;;;;;5132877;27;20051;-79
2022/03/28 02:32:12;;;;;;;12.68;5.72;;;6.20;99.90;;;;;;5113330;27;20039;-80
2022/03/28 02:34:38;;;;;;;9.45;5.22;;;6.20;99.90;;;;;;5097841;27;20043;-80
2022/03/28 02:37:04;;;;;;;7.72;4.60;;;6.20;99.90;;;;;;5131756;27;20035;-79
2022/03/28 02:39:30;;;;;;;6.63;4.10;;;6.20;99.90;;;;;;5133513;27;20047;-80
2022/03/28 02:41:55;;;;;;;9.38;4.35;;;6.20;99.90;;;;;;5096623;27;20099;-80
2022/03/28 02:44:21;;;;;;;8.23;4.38;;;6.10;99.90;;;;;;5114098;27;20353;-80
2022/03/28 02:46:47;;;;;;;8.20;3.95;;;6.10;99.90;;;;;;5132765;27;20044;-79
2022/03/28 02:49:13;;;;;;;7.75;3.65;;;6.10;99.90;;;;;;5131912;27;20122;-80
2022/03/28 02:51:40;;;;;;;5.70;3.30;;;6.10;99.90;;;;;;5115250;27;20082;-79
2022/03/28 02:54:06;;;;;;;6.25;2.90;;;6.10;99.90;;;;;;5116653;27;20055;-79
2022/03/28 02:56:32;;;;;;;5.05;3.13;;;6.00;99.90;;;;;;5120962;27;20031;-78
2022/03/28 02:58:58;;;;;;;7.25;2.78;;;6.00;99.90;;;;;;5134410;27;20054;-79
2022/03/28 03:01:24;;;;;;;5.82;2.85;;;6.00;99.90;;;;;;5113133;27;20050;-80
2022/03/28 03:03:50;;;;;;;5.60;3.05;;;5.90;99.90;;;;;;5113142;27;20035;-79
2022/03/28 03:06:16;;;;;;;8.35;3.15;;;5.90;99.90;;;;;;5114234;27;20081;-78
2022/03/28 03:08:42;;;;;;;9.20;4.07;;;6.50;99.90;;;;;;5096786;27;20043;-79
2022/03/28 03:11:09;;;;;;;10.98;3.72;;;5.90;99.90;;;;;;5129770;27;20092;-79
2022/03/28 03:13:36;;;;;;;6.57;3.40;;;7.00;99.90;;;;;;5131534;27;20100;-80
2022/03/28 03:16:02;;;;;;;6.57;3.42;;;5.80;99.90;;;;;;5095718;27;20094;-79
2022/03/28 03:18:27;;;;;;;5.20;3.42;;;5.80;99.90;;;;;;5131281;27;20054;-79
2022/03/28 03:20:53;;;;;;;6.55;4.00;;;5.80;99.90;;;;;;5131020;27;20356;-79
2022/03/28 03:23:19;;;;;;;6.55;3.67;;;5.80;99.90;;;;;;5111928;27;20047;-79
2022/03/28 03:25:44;;;;;;;6.15;3.53;;;6.00;99.90;;;;;;5131700;27;20047;-80
2022/03/28 03:28:10;;;;;;;8.57;4.05;;;6.80;99.90;;;;;;5113990;27;20043;-81
2022/03/28 03:30:36;;;;;;;6.53;3.47;;;6.20;99.90;;;;;;5132498;27;20551;-80
2022/03/28 03:33:02;;;;;;;5.78;3.35;;;5.90;99.90;;;;;;5077517;27;20046;-80
2022/03/28 03:35:27;;;;;;;4.95;2.83;;;5.80;99.90;;;;;;5130888;27;20130;-80
2022/03/28 03:37:53;;;;;;;8.75;3.05;;;5.80;99.90;;;;;;5130615;27;20027;-80
2022/03/28 03:40:19;;;;;;;5.57;2.47;;;5.80;99.90;;;;;;5077650;27;20043;-78
2022/03/28 03:42:45;;;;;;;4.20;2.25;;;5.70;99.90;;;;;;5112468;27;20059;-79
2022/03/28 03:45:10;;;;;;;3.40;2.38;;;5.70;99.90;;;;;;5111164;27;20047;-79
2022/03/28 03:47:37;;;;;;;6.40;2.50;;;5.70;99.90;;;;;;5112408;27;20043;-79
2022/03/28 03:50:06;;;;;;;3.28;1.85;;;6.20;99.90;;;;;;5130421;27;20157;-80
2022/03/28 03:52:32;;;;;;;2.60;1.38;;;5.60;99.90;;;;;;5095779;27;20128;-79
2022/03/28 03:54:58;;;;;;;3.10;2.00;;;5.60;99.90;;;;;;5094856;27;20062;-79
2022/03/28 03:57:23;;;;;;;4.75;2.13;;;5.60;99.90;;;;;;5130205;27;20503;-78
2022/03/28 03:59:49;;;;;;;3.78;2.03;;;5.70;99.90;;;;;;5131057;27;20486;-80
2022/03/28 04:02:15;;;;;;;2.88;1.85;;;5.70;99.90;;;;;;5111640;27;20047;-79
2022/03/28 04:04:40;;;;;;;4.30;2.30;;;5.70;99.90;;;;;;5096112;27;20043;-79
2022/03/28 04:07:06;;;;;;;3.85;1.92;;;5.70;99.90;;;;;;5129540;27;20398;-78
2022/03/28 04:09:31;;;;;;;2.92;1.88;;;6.70;99.90;;;;;;5131066;27;20039;-78
2022/03/28 04:11:57;;;;;;;3.08;1.73;;;5.70;99.90;;;;;;5111865;27;20057;-80
2022/03/28 04:14:23;;;;;;;4.82;1.75;;;5.80;99.90;;;;;;5112288;27;20061;-80
2022/03/28 04:16:49;;;;;;;3.85;1.55;;;5.80;99.90;;;;;;5113209;27;20072;-80
2022/03/28 04:19:15;;;;;;;2.47;1.17;;;5.80;99.90;;;;;;5112685;27;20047;-79
2022/03/28 04:21:41;;;;;;;2.03;1.08;;;5.80;99.90;;;;;;5145132;27;20043;-80
2022/03/28 04:24:07;;;;;;;1.33;1.00;;;5.70;99.90;;;;;;5124867;27;20112;-80
2022/03/28 04:26:33;;;;;;;2.38;1.25;;;5.70;99.90;;;;;;5133071;27;20475;-78
2022/03/28 04:28:58;;;;;;;1.67;1.02;;;5.70;99.90;;;;;;5095095;27;20073;-82
2022/03/28 04:31:24;;;;;;;1.55;0.93;;;5.70;99.90;;;;;;5094048;27;20031;-81
2022/03/28 04:33:50;;;;;;;2.00;1.25;;;6.10;99.90;;;;;;5111862;27;20084;-81
2022/03/28 04:36:16;;;;;;;2.80;1.13;;;5.70;99.90;;;;;;5093860;27;20051;-79
2022/03/28 04:38:41;;;;;;;2.00;1.08;;;5.70;99.90;;;;;;5094785;27;20043;-80
2022/03/28 04:41:07;;;;;;;1.92;1.20;;;5.70;99.90;;;;;;5092795;27;20456;-81
2022/03/28 04:43:33;;;;;;;2.95;1.45;;;5.70;99.90;;;;;;5111538;27;20406;-81
2022/03/28 04:45:58;;;;;;;3.13;1.77;;;5.70;99.90;;;;;;5075883;27;20035;-80
2022/03/28 04:48:24;;;;;;;2.22;1.42;;;5.70;99.90;;;;;;5093695;27;20437;-81
2022/03/28 04:50:50;;;;;;;3.20;2.22;;;5.70;99.90;;;;;;5110314;27;20411;-81
2022/03/28 04:53:17;;;;;;;2.67;2.00;;;5.70;99.90;;;;;;5127830;27;20452;-79
2022/03/28 04:55:43;;;;;;;3.75;2.72;;;5.70;99.90;;;;;;5110840;27;20043;-83
2022/03/28 04:58:09;;;;;;;4.18;2.85;;;5.60;99.90;;;;;;5128118;27;20035;-80
2022/03/28 05:00:35;;;;;;;6.55;3.80;;;5.60;99.90;;;;;;5129416;27;20107;-80
2022/03/28 05:03:01;;;;;;;7.10;3.78;;;5.60;99.90;;;;;;5109863;27;20432;-80
2022/03/28 05:05:27;;;;;;;7.57;4.45;;;5.60;99.90;;;;;;5093027;27;20050;-78
2022/03/28 05:07:53;;;;;;;7.35;4.63;;;5.60;99.90;;;;;;5129055;27;20031;-78
2022/03/28 05:10:18;;;;;;;10.20;5.22;;;5.70;99.90;;;;;;5075491;27;20469;-77
2022/03/28 05:12:45;;;;;;;7.03;5.03;;;5.70;99.90;;;;;;5093789;27;20091;-79
2022/03/28 05:15:10;;;;;;;9.48;5.22;;;5.60;99.90;;;;;;5128139;27;20492;-79
2022/03/28 05:17:36;;;;;;;5.65;3.70;;;5.60;99.90;;;;;;5093645;27;20070;-78
2022/03/28 05:20:04;;;;;;;7.10;4.60;;;5.60;99.90;;;;;;5128010;27;20181;-78
2022/03/28 05:22:29;;;;;;;6.38;4.57;;;5.60;99.90;;;;;;5109740;27;20047;-79
2022/03/28 05:24:56;;;;;;;8.52;3.95;;;5.60;99.90;;;;;;5093612;27;20059;-78
2022/03/28 05:27:22;;;;;;;11.30;5.25;;;6.80;99.90;;;;;;5109460;27;20344;-78
2022/03/28 05:29:48;;;;;;;10.30;5.72;;;5.70;99.90;;;;;;5110372;27;20328;-78
2022/03/28 05:32:14;;;;;;;11.13;4.55;;;5.70;99.90;;;;;;5092254;28;20054;-78
2022/03/28 05:34:40;;;;;;;9.55;4.75;;;5.70;99.90;;;;;;5129082;27;20078;-78
2022/03/28 05:37:10;;;;;;;6.22;4.10;;;5.70;99.90;;;;;;5075767;27;20127;-79
2022/03/28 05:39:36;;;;;;;5.40;3.85;;;5.70;99.90;;;;;;5128325;27;20347;-78
2022/03/28 05:42:03;;;;;;;7.03;4.80;;;5.60;99.90;;;;;;5110119;28;20062;-77
2022/03/28 05:44:29;;;;;;;7.25;4.47;;;5.60;99.90;;;;;;5093310;28;20043;-78
2022/03/28 05:46:55;;;;;;;7.60;4.60;;;6.70;99.90;;;;;;5111412;28;20479;-78
2022/03/28 05:49:24;;;;;;;9.82;5.60;;;5.60;99.90;;;;;;5128557;28;20045;-77
2022/03/28 05:51:51;;;;;;;9.52;6.13;;;5.60;99.90;;;;;;5130375;28;20409;-78
2022/03/28 05:54:18;;;;;;;8.75;5.20;;;5.60;99.90;;;;;;5110266;28;20035;-77
2022/03/28 05:56:43;;;;;;;10.50;6.40;;;5.60;99.90;;;;;;5112504;27;20043;-78
2022/03/28 05:59:09;;;;;;;9.57;6.40;;;5.60;99.90;;;;;;5117177;27;20129;-77
2022/03/28 06:01:36;;;;;;;14.63;6.88;;;5.60;99.90;;;;;;5132212;27;20113;-78
2022/03/28 06:04:03;;;;;;;10.75;6.22;;;5.70;99.90;;;;;;5133118;27;20039;-77
2022/03/28 06:06:29;;;;;;;10.77;6.28;;;5.70;99.90;;;;;;5114597;27;20108;-78
2022/03/28 06:08:56;;;;;;;10.05;6.38;;;5.70;99.90;;;;;;5097569;27;20055;-78
2022/03/28 06:11:22;;;;;;;7.32;5.38;;;7.00;99.90;;;;;;5113362;27;20136;-79
2022/03/28 06:13:48;;;;;;;8.20;6.10;;;5.70;99.90;;;;;;5131852;27;20709;-79
2022/03/28 06:16:13;;;;;;;8.95;6.43;;;5.70;99.90;;;;;;5113739;27;20078;-79
2022/03/28 06:18:39;;;;;;;5.57;4.25;;;5.80;99.90;;;;;;5112998;27;20039;-79
2022/03/28 06:21:07;;;;;;;5.55;4.18;;;5.80;99.90;;;;;;5113650;27;20047;-77
2022/03/28 06:23:36;;;;;;;6.13;4.18;;;5.80;99.90;;;;;;5131219;27;20043;-77
2022/03/28 06:26:03;;;;;;;8.25;5.03;;;5.80;99.90;;;;;;5132399;27;20050;-77
2022/03/28 06:28:29;;;;;;;9.85;4.85;;;6.80;99.90;;;;;;5112547;27;20114;-78
2022/03/28 06:30:55;;;;;;;7.72;4.85;;;6.10;99.90;;;;;;5078884;27;20122;-79
2022/03/28 06:33:21;;;;;;;13.18;5.15;;;5.90;99.90;;;;;;5095819;27;20046;-78
2022/03/28 06:35:47;;;;;;;9.02;5.18;;;5.90;99.90;;;;;;5112412;27;20516;-77
2022/03/28 06:38:13;;;;;;;7.10;4.97;;;7.00;99.90;;;;;;5096728;27;20079;-77
2022/03/28 06:40:39;;;;;;;8.40;5.63;;;6.00;99.90;;;;;;5112031;27;20078;-77
2022/03/28 06:43:05;;;;;;;7.25;4.93;;;6.00;99.90;;;;;;5113062;27;20130;-77
2022/03/28 06:45:31;;;;;;;18.73;6.53;;;6.10;99.90;;;;;;5112086;27;20047;-77
2022/03/28 06:47:57;;;;;;;17.92;6.10;;;6.20;99.90;;;;;;5095740;27;20157;-77
2022/03/28 06:50:25;;;;;;;21.13;5.72;;;6.10;99.90;;;;;;5113510;27;20066;-78
2022/03/28 06:52:51;;;;;;;11.77;5.47;;;6.20;99.90;;;;;;5095110;27;20502;-77
2022/03/28 06:55:18;;;;;;;8.85;6.00;;;6.20;99.90;;;;;;5079270;27;20487;-78
2022/03/28 06:57:44;;;;;;;9.77;6.30;;;6.30;99.90;;;;;;5112215;27;20046;-78
2022/03/28 07:00:10;;;;;;;14.07;6.78;;;6.30;99.90;;;;;;5113127;27;20043;-78
2022/03/28 07:02:37;;;;;;;11.63;7.40;;;6.30;99.90;;;;;;5094692;27;20123;-77
2022/03/28 07:05:05;;;;;;;10.45;7.22;;;6.40;99.90;;;;;;5095884;27;20408;-78
2022/03/28 07:07:45;;;;;;;13.65;7.90;;;6.40;99.90;;;;;;5112226;27;20055;-77
2022/03/28 07:10:13;;;;;;;10.30;6.53;;;6.50;99.90;;;;;;5111683;27;20088;-78
2022/03/28 07:12:39;;;;;;;8.98;5.88;;;6.50;99.90;;;;;;5131509;27;20039;-76
2022/03/28 07:15:07;;;;;;;12.52;6.35;;;7.00;99.90;;;;;;5130038;27;20537;-78
2022/03/28 07:17:56;;;;;;;14.25;7.60;;;6.60;99.90;;;;;;5095724;27;20035;-79
2022/03/28 07:20:25;;;;;;;16.67;8.38;;;6.60;99.90;;;;;;5112786;27;20042;-77
2022/03/28 07:22:51;;;;;;;14.40;8.98;;;6.60;99.90;;;;;;5111435;27;20058;-77
2022/03/28 07:25:17;;;;;;;13.73;8.75;;;6.70;99.90;;;;;;5131456;27;20054;-77
2022/03/28 07:27:43;;;;;;;11.38;8.90;;;6.70;99.90;;;;;;5130468;27;20035;-77
2022/03/28 07:30:10;;;;;;;12.77;8.48;;;6.80;99.90;;;;;;5112566;27;20046;-78
2022/03/28 07:32:37;;;;;;;15.30;9.00;;;6.80;99.90;;;;;;5112328;27;20055;-79
2022/03/28 07:35:03;;;;;;;12.70;9.20;;;6.80;99.90;;;;;;5095407;27;20046;-78
2022/03/28 07:37:29;;;;;;;10.75;8.00;;;6.90;99.90;;;;;;5112070;27;20487;-77
2022/03/28 07:39:55;;;;;;;17.73;7.60;;;7.10;99.90;;;;;;5110869;27;20135;-78
2022/03/28 07:42:21;;;;;;;10.23;7.80;;;7.20;99.90;;;;;;5095138;27;20051;-77
2022/03/28 07:44:48;;;;;;;14.65;10.75;;;7.00;99.90;;;;;;5094195;27;20051;-77
2022/03/28 07:47:14;;;;;;;17.02;10.50;;;7.00;99.90;;;;;;5130549;27;20043;-77
2022/03/28 07:49:39;;;;;;;18.83;11.00;;;7.10;99.90;;;;;;5094432;27;20050;-77
2022/03/28 07:52:09;;;;;;;12.77;9.50;;;7.10;99.90;;;;;;5094584;27;20389;-77
2022/03/28 07:54:36;;;;;;;21.77;9.60;;;7.10;99.90;;;;;;5111976;27;20083;-77
2022/03/28 07:57:03;;;;;;;12.00;8.15;;;7.10;99.90;;;;;;5129381;27;20114;-78
2022/03/28 07:59:29;;;;;;;11.15;7.30;;;7.20;99.90;;;;;;5130343;27;20039;-78
2022/03/28 08:01:55;;;;;;;11.23;7.43;;;7.20;99.90;;;;;;5110599;27;20051;-77
2022/03/28 08:04:20;;;;;;;16.25;9.32;;;8.20;99.90;;;;;;5130246;27;20356;-77
2022/03/28 08:06:46;;;;;;;11.80;8.30;;;7.20;99.90;;;;;;5110665;27;20122;-78
2022/03/28 08:09:12;;;;;;;12.52;8.68;;;7.30;99.90;;;;;;5129741;27;20050;-78
2022/03/28 08:11:38;;;;;;;11.70;7.65;;;7.40;99.90;;;;;;5094158;27;20047;-77
2022/03/28 08:14:04;;;;;;;9.65;7.57;;;7.40;99.90;;;;;;5109956;27;20038;-77
2022/03/28 08:16:31;;;;;;;12.45;8.57;;;7.40;99.90;;;;;;5111493;27;20509;-78
2022/03/28 08:18:57;;;;;;;12.27;8.82;;;7.50;99.90;;;;;;5093723;27;20050;-78
2022/03/28 08:21:23;;;;;;;14.35;9.63;;;7.60;99.90;;;;;;5111153;27;20043;-78
2022/03/28 08:23:48;;;;;;;17.33;9.35;;;7.60;99.90;;;;;;5112454;27;20070;-77
2022/03/28 08:26:14;;;;;;;17.38;9.75;;;7.60;99.90;;;;;;5131940;27;20477;-78
2022/03/28 08:28:41;;;;;;;13.63;10.75;;;7.60;99.90;;;;;;5111322;27;20039;-77
2022/03/28 08:31:07;;;;;;;17.70;10.63;;;7.60;99.90;;;;;;5093384;27;20050;-78
2022/03/28 08:33:32;;;;;;;15.73;10.32;;;7.70;99.90;;;;;;5111614;27;20035;-78
2022/03/28 08:35:58;;;;;;;14.68;10.05;;;7.70;99.90;;;;;;5128894;27;20410;-78
2022/03/28 08:38:24;;;;;;;14.65;9.63;;;7.70;99.90;;;;;;5111193;27;20084;-78
2022/03/28 08:40:50;;;;;;;16.40;10.48;;;7.70;99.90;;;;;;5128820;27;20039;-78
2022/03/28 08:43:21;;;;;;;12.50;9.23;;;7.70;99.90;;;;;;5110984;27;20080;-78
2022/03/28 08:45:50;;;;;;;16.80;9.73;;;7.70;99.90;;;;;;5110861;27;20043;-79
2022/03/28 08:48:16;;;;;;;15.43;9.40;;;7.70;99.90;;;;;;5110218;27;20043;-78
2022/03/28 08:50:44;;;;;;;12.48;8.50;;;7.70;99.90;;;;;;5094042;27;20058;-79
2022/03/28 08:53:10;;;;;;;15.02;8.98;;;8.00;99.90;;;;;;5128477;27;20263;-76
2022/03/28 08:55:39;;;;;;;14.95;8.82;;;7.70;99.90;;;;;;5110716;27;20043;-78
2022/03/28 08:58:05;;;;;;;13.23;9.00;;;8.70;99.90;;;;;;5110359;27;20086;-77
2022/03/28 09:00:31;;;;;;;14.38;9.27;;;7.70;99.90;;;;;;5094396;27;20074;-76
2022/03/28 09:02:58;;;;;;;12.65;8.48;;;7.80;99.90;;;;;;5076588;27;20043;-78
2022/03/28 09:05:35;;;;;;;12.88;9.48;;;7.80;99.90;;;;;;5109942;27;20354;-77
2022/03/28 09:08:02;;;;;;;12.18;8.65;;;7.90;99.90;;;;;;5130287;27;20054;-77
2022/03/28 09:10:32;;;;;;;15.05;9.50;;;7.90;99.90;;;;;;5128502;27;20035;-78
2022/03/28 09:13:04;;;;;;;14.20;9.30;;;8.00;99.90;;;;;;5129139;27;20451;-78
2022/03/28 09:15:43;;;;;;;15.88;9.30;;;8.60;99.90;;;;;;5110350;27;20415;-78
2022/03/28 09:18:24;;;;;;;16.10;8.35;;;8.10;99.90;;;;;;5128358;27;20460;-78
2022/03/28 09:21:06;;;;;;;13.90;8.80;;;8.10;99.90;;;;;;5128969;27;20137;-77
2022/03/28 09:23:48;;;;;;;9.63;6.82;;;8.20;99.90;;;;;;5128263;27;20111;-77
2022/03/28 09:26:23;;;;;;;10.13;7.05;;;8.20;99.90;;;;;;5128786;27;20434;-78
2022/03/28 09:28:56;;;;;;;10.15;6.78;;;8.50;99.90;;;;;;5109994;27;20122;-78
2022/03/28 09:31:27;;;;;;;9.05;6.45;;;8.30;99.90;;;;;;5108687;27;20104;-77
2022/03/28 09:34:01;;;;;;;13.57;7.60;;;8.70;99.90;;;;;;5093142;27;20558;-77
2022/03/28 09:36:34;;;;;;;10.35;7.30;;;8.40;99.90;;;;;;5128146;27;20043;-78
2022/03/28 09:39:01;;;;;;;8.50;6.50;;;8.50;99.90;;;;;;5109855;28;20039;-78
2022/03/28 09:41:31;;;;;;;13.63;7.60;;;8.60;99.90;;;;;;5106146;28;20055;-78
2022/03/28 09:43:58;;;;;;;13.48;7.68;;;8.60;99.90;;;;;;5105830;28;20093;-78
2022/03/28 09:46:28;;;;;;;13.18;7.35;;;8.60;99.90;;;;;;5106625;28;20045;-77
2022/03/28 09:48:54;;;;;;;14.02;6.90;;;8.90;99.90;;;;;;5088976;28;20126;-78
2022/03/28 09:51:21;;;;;;;8.70;6.50;;;8.70;99.90;;;;;;5106973;28;20109;-77
2022/03/28 09:53:48;;;;;;;11.38;7.28;;;8.70;99.90;;;;;;5089784;28;20514;-78
2022/03/28 09:56:14;;;;;;;10.75;7.15;;;8.80;99.90;;;;;;5089550;28;20244;-78
2022/03/28 09:58:46;;;;;;;10.35;7.32;;;8.80;99.90;;;;;;5106285;28;20058;-79
2022/03/28 10:01:35;;;;;;;13.10;7.78;;;9.50;99.90;;;;;;5105568;28;20051;-78
2022/03/28 10:04:05;;;;;;;12.35;7.82;;;9.00;99.90;;;;;;5106654;28;20134;-78
2022/03/28 10:06:31;;;;;;;12.35;7.82;;;9.10;99.90;;;;;;5107939;28;20359;-77
2022/03/28 10:08:58;;;;;;;10.38;7.63;;;9.10;99.90;;;;;;5106463;28;20039;-78
2022/03/28 10:11:25;;;;;;;12.00;7.72;;;10.50;99.90;;;;;;5107839;28;20040;-77
2022/03/28 10:13:51;;;;;;;13.00;8.30;;;9.30;99.90;;;;;;5105889;28;20195;-77
2022/03/28 10:16:17;;;;;;;10.32;7.47;;;9.30;99.90;;;;;;5108012;28;20574;-78
2022/03/28 10:18:45;;;;;;;12.30;8.15;;;9.40;99.90;;;;;;5089936;28;20064;-78
2022/03/28 10:21:33;;;;;;;12.25;8.50;;;9.40;99.90;;;;;;5090456;28;20051;-78
2022/03/28 10:24:12;;;;;;;12.07;7.80;;;10.40;99.90;;;;;;5108078;28;20536;-78
2022/03/28 10:26:44;;;;;;;12.40;8.02;;;9.50;99.90;;;;;;5089605;28;20094;-78
2022/03/28 10:29:13;;;;;;;10.48;8.10;;;9.70;99.90;;;;;;5108136;28;20040;-77
2022/03/28 10:32:02;;;;;;;10.98;8.00;;;9.80;99.90;;;;;;5108205;28;20035;-76
2022/03/28 10:34:56;;;;;;;12.63;8.13;;;9.90;99.90;;;;;;5107221;28;20035;-77
2022/03/28 10:37:36;;;;;;;11.18;7.95;;;9.80;99.90;;;;;;5089723;28;20043;-78
2022/03/28 10:40:26;;;;;;;9.85;7.82;;;10.00;99.90;;;;;;5107248;28;20438;-78
2022/03/28 10:43:04;;;;;;;12.55;7.57;;;9.90;99.90;;;;;;5126331;27;20051;-78
2022/03/28 10:45:44;;;;;;;15.32;7.90;;;10.00;99.90;;;;;;5095886;27;20047;-78
2022/03/28 10:48:10;;;;;;;13.20;8.02;;;10.10;99.90;;;;;;5131412;27;20403;-78
2022/03/28 10:50:53;;;;;;;13.07;8.07;;;10.10;99.90;;;;;;5132423;27;20526;-79
2022/03/28 10:53:39;;;;;;;11.52;8.30;;;10.00;99.90;;;;;;5096414;27;20099;-77
2022/03/28 10:56:09;;;;;;;10.60;7.53;;;10.00;99.90;;;;;;5113446;27;20094;-77
2022/03/28 10:58:41;;;;;;;12.77;8.52;;;10.00;99.90;;;;;;5112863;27;20050;-78
2022/03/28 11:01:11;;;;;;;10.68;8.35;;;10.10;99.90;;;;;;5095075;27;20070;-77
2022/03/28 11:03:57;;;;;;;11.55;7.65;;;10.70;99.90;;;;;;5095800;27;20470;-79
2022/03/28 11:07:04;;;;;;;11.88;7.93;;;10.30;99.90;;;;;;5131360;27;20465;-78
2022/03/28 11:09:54;;;;;;;14.55;8.90;;;10.30;99.90;;;;;;5112458;27;20043;-78
2022/03/28 11:12:37;;;;;;;16.67;8.50;;;10.30;99.90;;;;;;5095460;27;20046;-77
2022/03/28 11:15:21;;;;;;;14.75;8.40;;;10.40;99.90;;;;;;5130915;27;20443;-77
2022/03/28 11:17:58;;;;;;;12.68;8.50;;;10.40;99.90;;;;;;5131160;27;20418;-78
2022/03/28 11:20:42;;;;;;;13.10;8.32;;;10.50;99.90;;;;;;5112981;27;20043;-77
2022/03/28 11:23:10;;;;;;;14.63;9.25;;;10.50;99.90;;;;;;5111862;27;20051;-78
2022/03/28 11:25:56;;;;;;;11.05;8.35;;;10.70;99.90;;;;;;5112305;27;20056;-78
2022/03/28 11:28:22;;;;;;;10.45;8.05;;;10.80;99.90;;;;;;5130748;27;20046;-77
2022/03/28 11:30:51;;;;;;;10.90;8.00;;;10.90;99.90;;;;;;5112102;27;20035;-78
2022/03/28 11:33:20;;;;;;;11.75;8.90;;;10.90;99.90;;;;;;5095329;27;20130;-78
2022/03/28 11:36:18;;;;;;;10.85;8.05;;;10.90;99.90;;;;;;5111719;27;20118;-78
2022/03/28 11:38:51;;;;;;;13.77;9.10;;;10.90;99.90;;;;;;5105447;27;20051;-78
2022/03/28 11:41:20;;;;;;;12.63;9.07;;;11.00;99.90;;;;;;5095066;27;20051;-79
2022/03/28 11:43:48;;;;;;;11.55;8.63;;;11.20;99.90;;;;;;5095062;27;20059;-79
2022/03/28 11:46:17;;;;;;;11.90;8.52;;;11.30;99.90;;;;;;5095189;27;20046;-79
2022/03/28 11:49:04;;;;;;;13.38;8.50;;;11.50;99.90;;;;;;5094768;27;20083;-79
2022/03/28 11:51:32;;;;;;;12.52;8.48;;;11.60;99.90;;;;;;5112235;27;20047;-79
2022/03/28 11:54:06;;;;;;;14.07;8.18;;;11.80;99.90;;;;;;5111647;27;20066;-79
2022/03/28 11:58:14;;;;;;;10.48;7.65;;;11.90;99.90;;;;;;5097137;27;20043;-80
2022/03/28 11:59:24;;;;;;;12.68;8.38;;;12.10;99.90;;;;;;5137866;27;20047;-79
2022/03/28 12:02:01;;;;;;;10.23;8.40;;;12.30;99.90;;;;;;5131365;27;20425;-78
2022/03/28 12:04:28;;;;;;;11.55;8.02;;;12.50;99.90;;;;;;5111843;27;20108;-79
2022/03/28 12:06:54;;;;;;;10.65;8.00;;;12.50;99.90;;;;;;5111843;27;20085;-79
2022/03/28 12:09:23;;;;;;;13.65;8.60;;;12.60;99.90;;;;;;5130409;27;20078;-79
2022/03/28 12:11:52;;;;;;;12.60;7.55;;;12.80;99.90;;;;;;5132214;27;20382;-76
2022/03/28 12:14:19;;;;;;;11.55;8.07;;;13.00;99.90;;;;;;5112134;27;20090;-76
2022/03/28 12:16:52;;;;;;;9.43;7.55;;;13.10;99.90;;;;;;5112122;27;20084;-79
2022/03/28 12:19:28;;;;;;;8.65;7.72;;;13.20;99.90;;;;;;5130189;27;20099;-78
2022/03/28 12:21:56;;;;;;;12.23;8.30;;;13.10;99.90;;;;;;5129777;27;20424;-78
2022/03/28 12:24:24;;;;;;;9.48;7.43;;;13.00;99.90;;;;;;5094253;27;20046;-78
2022/03/28 12:26:52;;;;;;;8.52;6.60;;;13.10;99.90;;;;;;5111051;27;20126;-77
2022/03/28 12:29:18;;;;;;;10.57;6.80;;;13.20;99.90;;;;;;5111899;27;20077;-78
2022/03/28 12:31:45;;;;;;;10.63;6.97;;;13.30;99.90;;;;;;5129124;27;20526;-78
2022/03/28 12:34:12;;;;;;;6.97;6.05;;;13.40;99.90;;;;;;5111212;27;20091;-78
2022/03/28 12:36:38;;;;;;;9.82;6.30;;;13.40;99.90;;;;;;5110992;27;20043;-78
2022/03/28 12:39:06;;;;;;;8.70;5.78;;;13.40;99.90;;;;;;5110769;27;20039;-77
2022/03/28 12:42:00;;;;;;;9.02;6.60;;;13.60;99.90;;;;;;5093818;27;20150;-77
2022/03/28 12:44:26;;;;;;;8.85;6.38;;;13.00;99.90;;;;;;5125050;27;20062;-78
2022/03/28 12:47:03;;;;;;;7.85;6.30;;;13.00;99.90;;;;;;5129385;27;20168;-77
2022/03/28 12:49:40;;;;;;;8.75;6.45;;;12.90;99.90;;;;;;5129213;27;20039;-77
2022/03/28 12:52:10;;;;;;;9.07;6.38;;;12.80;99.90;;;;;;5109922;27;20508;-77
2022/03/28 12:54:35;;;;;;;8.02;6.00;;;12.70;99.90;;;;;;5110950;27;20435;-77
2022/03/28 12:57:02;;;;;;;8.63;6.25;;;12.60;99.90;;;;;;5109993;27;20075;-77